sensor_id;sensor_type;location;lat;lon;timestamp;pressure;altitude;pressure_sealevel;temperature;humidity
71151;BME280;59071;42.138;24.768;2023-09-18T00:02:25;100162.91;;;22.89;60.52
71151;BME280;59071;42.138;24.768;2023-09-18T00:04:50;100159.19;;;22.29;62.25
71151;BME280;59071;42.138;24.768;2023-09-18T00:07:16;100159.94;;;21.98;63.36
71151;BME280;59071;42.138;24.768;2023-09-18T00:09:41;100158.31;;;21.82;63.40
71151;BME280;59071;42.138;24.768;2023-09-18T00:12:07;100160.50;;;22.05;62.83
71151;BME280;59071;42.138;24.768;2023-09-18T00:14:32;100154.78;;;21.86;63.35
71151;BME280;59071;42.138;24.768;2023-09-18T00:16:58;100152.94;;;21.24;65.73
71151;BME280;59071;42.138;24.768;2023-09-18T00:19:23;100149.31;;;21.61;64.66
71151;BME280;59071;42.138;24.768;2023-09-18T00:21:50;100151.34;;;21.33;65.51
71151;BME280;59071;42.138;24.768;2023-09-18T00:24:17;100134.19;;;21.80;64.16
71151;BME280;59071;42.138;24.768;2023-09-18T00:26:43;100144.22;;;22.00;63.56
71151;BME280;59071;42.138;24.768;2023-09-18T00:29:08;100142.31;;;21.75;64.07
71151;BME280;59071;42.138;24.768;2023-09-18T00:31:33;100152.81;;;21.56;64.90
71151;BME280;59071;42.138;24.768;2023-09-18T00:33:59;100157.72;;;21.70;64.60
71151;BME280;59071;42.138;24.768;2023-09-18T00:36:24;100156.66;;;21.81;64.08
71151;BME280;59071;42.138;24.768;2023-09-18T00:38:50;100155.31;;;21.78;64.05
71151;BME280;59071;42.138;24.768;2023-09-18T00:41:15;100156.16;;;21.84;64.13
71151;BME280;59071;42.138;24.768;2023-09-18T00:43:41;100164.00;;;21.96;63.58
71151;BME280;59071;42.138;24.768;2023-09-18T00:46:07;100148.81;;;21.79;64.27
71151;BME280;59071;42.138;24.768;2023-09-18T00:48:33;100153.97;;;22.06;63.09
71151;BME280;59071;42.138;24.768;2023-09-18T00:50:58;100152.34;;;21.90;63.81
71151;BME280;59071;42.138;24.768;2023-09-18T00:53:25;100154.28;;;22.20;62.81
71151;BME280;59071;42.138;24.768;2023-09-18T00:55:53;100154.25;;;21.95;63.52
71151;BME280;59071;42.138;24.768;2023-09-18T00:58:19;100150.19;;;22.02;63.34
71151;BME280;59071;42.138;24.768;2023-09-18T01:00:45;100143.94;;;21.81;64.07
71151;BME280;59071;42.138;24.768;2023-09-18T01:03:10;100151.56;;;22.00;63.22
71151;BME280;59071;42.138;24.768;2023-09-18T01:05:36;100145.78;;;21.60;64.79
71151;BME280;59071;42.138;24.768;2023-09-18T01:08:02;100141.75;;;21.68;63.99
71151;BME280;59071;42.138;24.768;2023-09-18T01:10:34;100146.06;;;21.64;64.37
71151;BME280;59071;42.138;24.768;2023-09-18T01:15:37;100142.31;;;21.75;63.20
71151;BME280;59071;42.138;24.768;2023-09-18T01:18:09;100141.72;;;21.58;64.47
71151;BME280;59071;42.138;24.768;2023-09-18T01:20:35;100155.94;;;21.27;64.88
71151;BME280;59071;42.138;24.768;2023-09-18T01:23:00;100143.91;;;21.66;63.49
71151;BME280;59071;42.138;24.768;2023-09-18T01:25:25;100146.34;;;21.67;63.27
71151;BME280;59071;42.138;24.768;2023-09-18T01:27:51;100152.63;;;21.78;63.62
71151;BME280;59071;42.138;24.768;2023-09-18T01:30:17;100146.63;;;21.71;63.29
71151;BME280;59071;42.138;24.768;2023-09-18T01:32:44;100153.91;;;21.55;63.65
71151;BME280;59071;42.138;24.768;2023-09-18T01:35:12;100145.84;;;21.81;63.26
71151;BME280;59071;42.138;24.768;2023-09-18T01:37:37;100147.75;;;21.80;63.00
71151;BME280;59071;42.138;24.768;2023-09-18T01:40:06;100148.56;;;21.96;62.52
71151;BME280;59071;42.138;24.768;2023-09-18T01:42:33;100136.09;;;21.90;62.48
71151;BME280;59071;42.138;24.768;2023-09-18T01:44:59;100152.91;;;21.82;62.88
71151;BME280;59071;42.138;24.768;2023-09-18T01:47:25;100146.16;;;22.20;61.82
71151;BME280;59071;42.138;24.768;2023-09-18T01:49:53;100151.00;;;22.23;61.53
71151;BME280;59071;42.138;24.768;2023-09-18T01:52:19;100142.88;;;22.23;61.54
71151;BME280;59071;42.138;24.768;2023-09-18T01:54:45;100151.06;;;22.29;61.20
71151;BME280;59071;42.138;24.768;2023-09-18T01:57:10;100146.97;;;22.31;61.06
71151;BME280;59071;42.138;24.768;2023-09-18T01:59:37;100148.53;;;21.81;62.25
71151;BME280;59071;42.138;24.768;2023-09-18T02:02:02;100144.78;;;21.92;62.71
71151;BME280;59071;42.138;24.768;2023-09-18T02:04:35;100145.31;;;22.20;61.41
71151;BME280;59071;42.138;24.768;2023-09-18T02:07:01;100147.72;;;21.75;62.67
71151;BME280;59071;42.138;24.768;2023-09-18T02:09:27;100148.56;;;22.12;61.74
71151;BME280;59071;42.138;24.768;2023-09-18T02:11:52;100152.09;;;21.92;62.04
71151;BME280;59071;42.138;24.768;2023-09-18T02:14:18;100148.84;;;22.05;62.09
71151;BME280;59071;42.138;24.768;2023-09-18T02:16:43;100152.41;;;22.31;60.72
71151;BME280;59071;42.138;24.768;2023-09-18T02:19:10;100162.13;;;22.12;61.71
71151;BME280;59071;42.138;24.768;2023-09-18T02:21:36;100146.19;;;22.36;60.54
71151;BME280;59071;42.138;24.768;2023-09-18T02:24:02;100151.59;;;22.46;60.49
71151;BME280;59071;42.138;24.768;2023-09-18T02:26:28;100149.69;;;22.52;59.95
71151;BME280;59071;42.138;24.768;2023-09-18T02:28:55;100151.59;;;22.41;60.41
71151;BME280;59071;42.138;24.768;2023-09-18T02:31:21;100158.38;;;22.43;60.38
71151;BME280;59071;42.138;24.768;2023-09-18T02:33:48;100148.84;;;22.72;59.27
71151;BME280;59071;42.138;24.768;2023-09-18T02:36:13;100154.81;;;22.74;59.15
71151;BME280;59071;42.138;24.768;2023-09-18T02:38:39;100149.41;;;22.48;59.94
71151;BME280;59071;42.138;24.768;2023-09-18T02:41:04;100148.06;;;22.51;59.78
71151;BME280;59071;42.138;24.768;2023-09-18T02:43:30;100159.16;;;22.64;59.41
71151;BME280;59071;42.138;24.768;2023-09-18T02:45:55;100155.84;;;22.88;58.40
71151;BME280;59071;42.138;24.768;2023-09-18T02:48:20;100156.97;;;22.77;58.68
71151;BME280;59071;42.138;24.768;2023-09-18T02:50:46;100163.75;;;22.79;58.83
71151;BME280;59071;42.138;24.768;2023-09-18T02:53:18;100159.41;;;22.78;58.84
71151;BME280;59071;42.138;24.768;2023-09-18T02:55:44;100163.44;;;22.86;58.52
71151;BME280;59071;42.138;24.768;2023-09-18T02:58:10;100169.19;;;22.79;58.67
71151;BME280;59071;42.138;24.768;2023-09-18T03:00:43;100162.38;;;22.82;58.55
71151;BME280;59071;42.138;24.768;2023-09-18T03:03:09;100155.03;;;22.88;58.32
71151;BME280;59071;42.138;24.768;2023-09-18T03:05:35;100161.56;;;22.87;58.70
71151;BME280;59071;42.138;24.768;2023-09-18T03:08:01;100161.31;;;22.83;58.54
71151;BME280;59071;42.138;24.768;2023-09-18T03:10:27;100164.56;;;22.85;58.33
71151;BME280;59071;42.138;24.768;2023-09-18T03:12:53;100172.44;;;22.81;58.74
71151;BME280;59071;42.138;24.768;2023-09-18T03:15:18;100168.66;;;22.77;58.66
71151;BME280;59071;42.138;24.768;2023-09-18T03:17:44;100170.22;;;22.94;58.32
71151;BME280;59071;42.138;24.768;2023-09-18T03:20:10;100169.94;;;22.90;58.22
71151;BME280;59071;42.138;24.768;2023-09-18T03:22:35;100172.16;;;22.78;58.51
71151;BME280;59071;42.138;24.768;2023-09-18T03:25:01;100161.00;;;22.90;58.00
71151;BME280;59071;42.138;24.768;2023-09-18T03:27:26;100169.16;;;22.90;58.01
71151;BME280;59071;42.138;24.768;2023-09-18T03:29:57;100171.84;;;23.00;57.61
71151;BME280;59071;42.138;24.768;2023-09-18T03:32:23;100161.25;;;23.14;57.12
71151;BME280;59071;42.138;24.768;2023-09-18T03:34:52;100160.72;;;22.91;57.99
71151;BME280;59071;42.138;24.768;2023-09-18T03:37:17;100161.84;;;22.85;58.66
71151;BME280;59071;42.138;24.768;2023-09-18T03:39:43;100166.50;;;22.54;59.13
71151;BME280;59071;42.138;24.768;2023-09-18T03:42:08;100161.03;;;22.74;58.41
71151;BME280;59071;42.138;24.768;2023-09-18T03:44:34;100169.72;;;22.76;58.19
71151;BME280;59071;42.138;24.768;2023-09-18T03:46:59;100174.34;;;22.81;58.22
71151;BME280;59071;42.138;24.768;2023-09-18T03:49:25;100165.94;;;22.77;58.85
71151;BME280;59071;42.138;24.768;2023-09-18T03:51:51;100169.44;;;22.78;58.77
71151;BME280;59071;42.138;24.768;2023-09-18T03:54:17;100168.34;;;22.94;61.64
71151;BME280;59071;42.138;24.768;2023-09-18T03:56:42;100173.22;;;22.77;59.68
71151;BME280;59071;42.138;24.768;2023-09-18T03:59:08;100174.56;;;22.90;58.97
71151;BME280;59071;42.138;24.768;2023-09-18T04:01:33;100172.13;;;23.03;58.30
71151;BME280;59071;42.138;24.768;2023-09-18T04:03:59;100171.56;;;23.07;57.62
71151;BME280;59071;42.138;24.768;2023-09-18T04:06:35;100181.59;;;22.96;58.59
71151;BME280;59071;42.138;24.768;2023-09-18T04:09:00;100188.94;;;23.00;57.76
71151;BME280;59071;42.138;24.768;2023-09-18T04:11:26;100177.53;;;23.14;57.04
71151;BME280;59071;42.138;24.768;2023-09-18T04:13:51;100176.09;;;23.32;56.64
71151;BME280;59071;42.138;24.768;2023-09-18T04:16:17;100183.69;;;23.35;56.73
71151;BME280;59071;42.138;24.768;2023-09-18T04:18:42;100174.22;;;23.22;56.63
71151;BME280;59071;42.138;24.768;2023-09-18T04:21:08;100183.69;;;23.35;56.94
71151;BME280;59071;42.138;24.768;2023-09-18T04:23:35;100182.94;;;23.19;57.94
71151;BME280;59071;42.138;24.768;2023-09-18T04:26:02;100184.03;;;23.18;59.95
71151;BME280;59071;42.138;24.768;2023-09-18T04:28:27;100174.75;;;23.34;57.80
71151;BME280;59071;42.138;24.768;2023-09-18T04:30:53;100176.84;;;23.48;57.93
71151;BME280;59071;42.138;24.768;2023-09-18T04:33:19;100180.06;;;23.55;57.29
71151;BME280;59071;42.138;24.768;2023-09-18T04:35:46;100174.41;;;23.46;57.44
71151;BME280;59071;42.138;24.768;2023-09-18T04:38:12;100184.16;;;23.47;57.03
71151;BME280;59071;42.138;24.768;2023-09-18T04:40:40;100183.03;;;23.58;56.99
71151;BME280;59071;42.138;24.768;2023-09-18T04:43:05;100186.28;;;23.60;56.92
71151;BME280;59071;42.138;24.768;2023-09-18T04:45:31;100185.19;;;23.61;57.24
71151;BME280;59071;42.138;24.768;2023-09-18T04:47:57;100180.56;;;23.67;57.34
71151;BME280;59071;42.138;24.768;2023-09-18T04:50:23;100186.00;;;23.62;57.05
71151;BME280;59071;42.138;24.768;2023-09-18T04:52:48;100184.31;;;23.76;56.58
71151;BME280;59071;42.138;24.768;2023-09-18T04:55:16;100169.09;;;23.70;57.13
71151;BME280;59071;42.138;24.768;2023-09-18T04:57:41;100175.31;;;23.86;55.91
71151;BME280;59071;42.138;24.768;2023-09-18T05:00:07;100183.09;;;24.03;55.55
71151;BME280;59071;42.138;24.768;2023-09-18T05:02:34;100176.00;;;24.07;55.96
71151;BME280;59071;42.138;24.768;2023-09-18T05:05:00;100184.34;;;24.16;55.63
71151;BME280;59071;42.138;24.768;2023-09-18T05:07:25;100181.66;;;24.45;54.60
71151;BME280;59071;42.138;24.768;2023-09-18T05:09:51;100173.19;;;24.52;54.21
71151;BME280;59071;42.138;24.768;2023-09-18T05:12:17;100189.69;;;24.66;52.15
71151;BME280;59071;42.138;24.768;2023-09-18T05:14:43;100172.69;;;24.79;51.36
71151;BME280;59071;42.138;24.768;2023-09-18T05:17:14;100177.44;;;24.92;51.90
71151;BME280;59071;42.138;24.768;2023-09-18T05:19:40;100186.47;;;25.12;52.13
71151;BME280;59071;42.138;24.768;2023-09-18T05:22:07;100182.13;;;25.59;49.90
71151;BME280;59071;42.138;24.768;2023-09-18T05:24:33;100181.75;;;25.85;48.84
71151;BME280;59071;42.138;24.768;2023-09-18T05:26:58;100184.19;;;25.67;50.04
71151;BME280;59071;42.138;24.768;2023-09-18T05:29:24;100178.81;;;26.00;49.55
71151;BME280;59071;42.138;24.768;2023-09-18T05:31:49;100177.53;;;26.30;48.08
71151;BME280;59071;42.138;24.768;2023-09-18T05:34:15;100177.63;;;26.58;47.98
71151;BME280;59071;42.138;24.768;2023-09-18T05:36:40;100173.22;;;26.90;46.76
71151;BME280;59071;42.138;24.768;2023-09-18T05:39:06;100173.34;;;26.99;45.35
71151;BME280;59071;42.138;24.768;2023-09-18T05:41:38;100180.22;;;27.24;43.97
71151;BME280;59071;42.138;24.768;2023-09-18T05:44:04;100167.97;;;27.21;44.50
71151;BME280;59071;42.138;24.768;2023-09-18T05:46:30;100170.44;;;27.37;43.86
71151;BME280;59071;42.138;24.768;2023-09-18T05:48:56;100171.81;;;27.48;43.29
71151;BME280;59071;42.138;24.768;2023-09-18T05:51:22;100173.03;;;27.56;43.04
71151;BME280;59071;42.138;24.768;2023-09-18T05:53:49;100175.47;;;27.57;43.27
71151;BME280;59071;42.138;24.768;2023-09-18T05:56:14;100177.13;;;27.30;43.77
71151;BME280;59071;42.138;24.768;2023-09-18T05:58:42;100181.03;;;26.97;44.95
71151;BME280;59071;42.138;24.768;2023-09-18T06:01:07;100181.41;;;26.76;44.78
71151;BME280;59071;42.138;24.768;2023-09-18T06:03:33;100185.03;;;26.39;45.77
71151;BME280;59071;42.138;24.768;2023-09-18T06:06:04;100184.66;;;25.93;46.66
71151;BME280;59071;42.138;24.768;2023-09-18T06:08:30;100186.13;;;25.43;48.25
71151;BME280;59071;42.138;24.768;2023-09-18T06:10:56;100177.59;;;25.30;48.67
71151;BME280;59071;42.138;24.768;2023-09-18T06:13:24;100190.06;;;25.07;49.25
71151;BME280;59071;42.138;24.768;2023-09-18T06:15:50;100194.06;;;25.15;49.39
71151;BME280;59071;42.138;24.768;2023-09-18T06:18:18;100198.09;;;25.66;48.42
71151;BME280;59071;42.138;24.768;2023-09-18T06:20:46;100203.06;;;26.02;46.94
71151;BME280;59071;42.138;24.768;2023-09-18T06:23:11;100203.22;;;25.91;47.26
71151;BME280;59071;42.138;24.768;2023-09-18T06:25:38;100202.41;;;26.10;46.89
71151;BME280;59071;42.138;24.768;2023-09-18T06:28:03;100199.31;;;26.49;45.60
71151;BME280;59071;42.138;24.768;2023-09-18T06:30:30;100202.34;;;26.48;45.43
71151;BME280;59071;42.138;24.768;2023-09-18T06:33:02;100207.06;;;26.42;45.68
71151;BME280;59071;42.138;24.768;2023-09-18T06:35:29;100209.72;;;26.47;45.48
71151;BME280;59071;42.138;24.768;2023-09-18T06:37:55;100206.63;;;26.54;44.95
71151;BME280;59071;42.138;24.768;2023-09-18T06:40:24;100198.63;;;26.58;45.27
71151;BME280;59071;42.138;24.768;2023-09-18T06:42:50;100201.44;;;26.71;45.05
71151;BME280;59071;42.138;24.768;2023-09-18T06:45:16;100203.97;;;26.82;44.67
71151;BME280;59071;42.138;24.768;2023-09-18T06:47:42;100205.41;;;26.93;45.08
71151;BME280;59071;42.138;24.768;2023-09-18T06:50:08;100198.03;;;27.07;44.38
71151;BME280;59071;42.138;24.768;2023-09-18T06:52:34;100205.94;;;27.23;44.09
71151;BME280;59071;42.138;24.768;2023-09-18T06:54:59;100205.38;;;26.79;44.90
71151;BME280;59071;42.138;24.768;2023-09-18T06:57:25;100201.56;;;27.22;44.37
71151;BME280;59071;42.138;24.768;2023-09-18T06:59:50;100208.13;;;27.76;44.02
71151;BME280;59071;42.138;24.768;2023-09-18T07:02:16;100200.84;;;28.31;42.05
71151;BME280;59071;42.138;24.768;2023-09-18T07:04:42;100201.31;;;28.46;41.56
71151;BME280;59071;42.138;24.768;2023-09-18T07:07:14;100193.16;;;28.87;40.88
71151;BME280;59071;42.138;24.768;2023-09-18T07:09:42;100193.88;;;29.50;39.58
71151;BME280;59071;42.138;24.768;2023-09-18T07:12:09;100190.34;;;29.67;38.51
71151;BME280;59071;42.138;24.768;2023-09-18T07:14:35;100190.13;;;28.97;38.71
71151;BME280;59071;42.138;24.768;2023-09-18T07:17:01;100191.13;;;29.01;38.19
71151;BME280;59071;42.138;24.768;2023-09-18T07:19:27;100199.75;;;29.17;38.27
71151;BME280;59071;42.138;24.768;2023-09-18T07:21:52;100200.81;;;29.07;38.05
71151;BME280;59071;42.138;24.768;2023-09-18T07:24:18;100197.66;;;29.22;38.19
71151;BME280;59071;42.138;24.768;2023-09-18T07:26:46;100201.91;;;29.37;38.77
71151;BME280;59071;42.138;24.768;2023-09-18T07:29:13;100200.66;;;29.70;38.09
71151;BME280;59071;42.138;24.768;2023-09-18T07:31:39;100202.97;;;29.76;38.64
71151;BME280;59071;42.138;24.768;2023-09-18T07:34:05;100210.06;;;30.38;37.11
71151;BME280;59071;42.138;24.768;2023-09-18T07:36:31;100200.56;;;29.92;37.12
71151;BME280;59071;42.138;24.768;2023-09-18T07:38:57;100199.03;;;29.60;37.86
71151;BME280;59071;42.138;24.768;2023-09-18T07:41:22;100207.16;;;29.82;37.08
71151;BME280;59071;42.138;24.768;2023-09-18T07:43:48;100206.16;;;29.12;38.24
71151;BME280;59071;42.138;24.768;2023-09-18T07:46:14;100207.09;;;29.56;37.48
71151;BME280;59071;42.138;24.768;2023-09-18T07:48:39;100210.59;;;29.31;37.75
71151;BME280;59071;42.138;24.768;2023-09-18T07:51:05;100202.94;;;29.59;37.49
71151;BME280;59071;42.138;24.768;2023-09-18T07:53:30;100207.97;;;29.83;36.52
71151;BME280;59071;42.138;24.768;2023-09-18T07:55:58;100204.41;;;30.44;35.82
71151;BME280;59071;42.138;24.768;2023-09-18T07:58:25;100203.22;;;31.18;35.40
71151;BME280;59071;42.138;24.768;2023-09-18T08:00:53;100201.72;;;31.80;33.93
71151;BME280;59071;42.138;24.768;2023-09-18T08:03:19;100197.00;;;32.56;33.22
71151;BME280;59071;42.138;24.768;2023-09-18T08:05:44;100198.84;;;32.52;32.59
71151;BME280;59071;42.138;24.768;2023-09-18T08:08:10;100196.69;;;32.58;31.92
71151;BME280;59071;42.138;24.768;2023-09-18T08:10:38;100202.66;;;31.84;32.91
71151;BME280;59071;42.138;24.768;2023-09-18T08:13:04;100196.38;;;30.86;34.33
71151;BME280;59071;42.138;24.768;2023-09-18T08:15:29;100191.84;;;29.90;35.19
71151;BME280;59071;42.138;24.768;2023-09-18T08:17:55;100193.91;;;29.67;36.66
71151;BME280;59071;42.138;24.768;2023-09-18T08:20:20;100189.22;;;28.70;37.88
71151;BME280;59071;42.138;24.768;2023-09-18T08:22:46;100193.84;;;29.32;37.49
71151;BME280;59071;42.138;24.768;2023-09-18T08:25:13;100180.06;;;29.90;36.14
71151;BME280;59071;42.138;24.768;2023-09-18T08:27:39;100184.25;;;30.13;35.77
71151;BME280;59071;42.138;24.768;2023-09-18T08:30:11;100181.78;;;29.51;36.48
71151;BME280;59071;42.138;24.768;2023-09-18T08:32:38;100172.91;;;28.65;37.88
71151;BME280;59071;42.138;24.768;2023-09-18T08:35:04;100178.84;;;28.13;38.67
71151;BME280;59071;42.138;24.768;2023-09-18T08:37:30;100182.44;;;28.45;38.02
71151;BME280;59071;42.138;24.768;2023-09-18T08:39:55;100189.97;;;28.62;37.67
71151;BME280;59071;42.138;24.768;2023-09-18T08:42:21;100181.97;;;27.84;38.71
71151;BME280;59071;42.138;24.768;2023-09-18T08:44:49;100169.25;;;28.47;38.46
71151;BME280;59071;42.138;24.768;2023-09-18T08:47:17;100174.56;;;29.06;36.97
71151;BME280;59071;42.138;24.768;2023-09-18T08:49:45;100174.19;;;29.39;36.01
71151;BME280;59071;42.138;24.768;2023-09-18T08:52:15;100164.38;;;29.55;36.03
71151;BME280;59071;42.138;24.768;2023-09-18T08:54:42;100172.88;;;29.36;36.83
71151;BME280;59071;42.138;24.768;2023-09-18T08:57:08;100172.44;;;29.69;35.50
71151;BME280;59071;42.138;24.768;2023-09-18T08:59:35;100159.22;;;30.15;34.86
71151;BME280;59071;42.138;24.768;2023-09-18T09:02:04;100174.59;;;30.16;34.57
71151;BME280;59071;42.138;24.768;2023-09-18T09:04:29;100167.25;;;29.41;35.31
71151;BME280;59071;42.138;24.768;2023-09-18T09:06:55;100160.56;;;29.91;34.09
71151;BME280;59071;42.138;24.768;2023-09-18T09:09:25;100161.47;;;29.60;34.55
71151;BME280;59071;42.138;24.768;2023-09-18T09:11:52;100161.97;;;30.24;33.70
71151;BME280;59071;42.138;24.768;2023-09-18T09:14:17;100152.19;;;30.70;33.14
71151;BME280;59071;42.138;24.768;2023-09-18T09:16:51;100146.94;;;30.38;33.66
71151;BME280;59071;42.138;24.768;2023-09-18T09:19:17;100143.06;;;30.39;33.71
71151;BME280;59071;42.138;24.768;2023-09-18T09:21:43;100150.66;;;30.25;34.18
71151;BME280;59071;42.138;24.768;2023-09-18T09:24:12;100151.00;;;30.06;34.67
71151;BME280;59071;42.138;24.768;2023-09-18T09:26:41;100142.59;;;30.20;34.54
71151;BME280;59071;42.138;24.768;2023-09-18T09:29:18;100146.75;;;30.52;35.39
71151;BME280;59071;42.138;24.768;2023-09-18T09:31:45;100147.94;;;30.81;34.55
71151;BME280;59071;42.138;24.768;2023-09-18T09:34:11;100148.09;;;29.59;34.58
71151;BME280;59071;42.138;24.768;2023-09-18T09:36:51;100151.97;;;29.67;35.01
71151;BME280;59071;42.138;24.768;2023-09-18T09:39:17;100145.28;;;29.15;36.18
71151;BME280;59071;42.138;24.768;2023-09-18T09:41:47;100145.34;;;29.01;36.90
71151;BME280;59071;42.138;24.768;2023-09-18T09:44:13;100144.34;;;30.51;35.04
71151;BME280;59071;42.138;24.768;2023-09-18T09:46:48;100145.72;;;31.64;33.49
71151;BME280;59071;42.138;24.768;2023-09-18T09:49:14;100145.72;;;31.64;33.00
71151;BME280;59071;42.138;24.768;2023-09-18T09:51:41;100136.38;;;32.31;31.99
71151;BME280;59071;42.138;24.768;2023-09-18T09:54:07;100139.72;;;32.37;31.12
71151;BME280;59071;42.138;24.768;2023-09-18T09:56:49;100137.16;;;31.77;30.92
71151;BME280;59071;42.138;24.768;2023-09-18T09:59:16;100128.50;;;30.48;32.95
71151;BME280;59071;42.138;24.768;2023-09-18T10:01:46;100130.03;;;30.01;33.36
71151;BME280;59071;42.138;24.768;2023-09-18T10:04:15;100128.91;;;29.94;33.24
71151;BME280;59071;42.138;24.768;2023-09-18T10:06:50;100126.78;;;29.38;34.62
71151;BME280;59071;42.138;24.768;2023-09-18T10:09:17;100122.94;;;29.57;34.18
71151;BME280;59071;42.138;24.768;2023-09-18T10:11:46;100121.13;;;30.22;33.97
71151;BME280;59071;42.138;24.768;2023-09-18T10:14:19;100123.59;;;31.09;32.57
71151;BME280;59071;42.138;24.768;2023-09-18T10:16:49;100127.06;;;31.48;31.33
71151;BME280;59071;42.138;24.768;2023-09-18T10:19:39;100123.56;;;30.71;31.69
71151;BME280;59071;42.138;24.768;2023-09-18T10:24:39;100111.22;;;30.56;32.43
71151;BME280;59071;42.138;24.768;2023-09-18T10:27:06;100113.34;;;30.80;31.74
71151;BME280;59071;42.138;24.768;2023-09-18T10:29:36;100107.72;;;30.76;32.08
71151;BME280;59071;42.138;24.768;2023-09-18T10:32:05;100104.06;;;30.64;31.71
71151;BME280;59071;42.138;24.768;2023-09-18T10:34:35;100092.72;;;30.74;32.36
71151;BME280;59071;42.138;24.768;2023-09-18T10:37:02;100099.34;;;30.26;31.84
71151;BME280;59071;42.138;24.768;2023-09-18T10:39:35;100090.47;;;30.67;31.73
71151;BME280;59071;42.138;24.768;2023-09-18T10:42:02;100086.50;;;30.94;31.58
71151;BME280;59071;42.138;24.768;2023-09-18T10:44:29;100081.47;;;30.88;31.67
71151;BME280;59071;42.138;24.768;2023-09-18T10:46:57;100073.06;;;31.44;30.67
71151;BME280;59071;42.138;24.768;2023-09-18T10:49:24;100078.00;;;31.08;30.36
71151;BME280;59071;42.138;24.768;2023-09-18T10:51:53;100076.28;;;31.25;30.85
71151;BME280;59071;42.138;24.768;2023-09-18T10:54:25;100074.91;;;31.61;30.00
71151;BME280;59071;42.138;24.768;2023-09-18T10:56:52;100073.25;;;31.81;29.56
71151;BME280;59071;42.138;24.768;2023-09-18T10:59:18;100074.06;;;30.50;31.65
71151;BME280;59071;42.138;24.768;2023-09-18T11:01:44;100076.28;;;30.18;31.58
71151;BME280;59071;42.138;24.768;2023-09-18T11:04:11;100070.69;;;29.88;31.69
71151;BME280;59071;42.138;24.768;2023-09-18T11:09:21;100063.09;;;29.85;32.55
71151;BME280;59071;42.138;24.768;2023-09-18T11:11:52;100056.88;;;30.23;31.76
71151;BME280;59071;42.138;24.768;2023-09-18T11:14:22;100066.97;;;29.84;30.92
71151;BME280;59071;42.138;24.768;2023-09-18T11:16:49;100062.63;;;29.31;31.96
71151;BME280;59071;42.138;24.768;2023-09-18T11:19:18;100053.22;;;29.93;31.62
71151;BME280;59071;42.138;24.768;2023-09-18T11:21:45;100045.44;;;30.98;30.74
71151;BME280;59071;42.138;24.768;2023-09-18T11:24:19;100046.66;;;31.51;29.25
71151;BME280;59071;42.138;24.768;2023-09-18T11:26:50;100041.06;;;31.60;29.55
71151;BME280;59071;42.138;24.768;2023-09-18T11:29:21;100042.38;;;31.75;28.85
71151;BME280;59071;42.138;24.768;2023-09-18T11:31:55;100042.56;;;31.15;30.13
71151;BME280;59071;42.138;24.768;2023-09-18T11:34:31;100039.13;;;31.18;30.07
71151;BME280;59071;42.138;24.768;2023-09-18T11:36:59;100044.38;;;31.53;29.67
71151;BME280;59071;42.138;24.768;2023-09-18T11:39:40;100036.81;;;31.84;28.69
71151;BME280;59071;42.138;24.768;2023-09-18T11:42:18;100039.00;;;30.85;29.37
71151;BME280;59071;42.138;24.768;2023-09-18T11:44:45;100045.03;;;31.08;28.94
71151;BME280;59071;42.138;24.768;2023-09-18T11:47:15;100031.09;;;30.54;29.71
71151;BME280;59071;42.138;24.768;2023-09-18T11:49:51;100025.69;;;30.36;29.97
71151;BME280;59071;42.138;24.768;2023-09-18T11:52:22;100032.94;;;29.59;31.15
71151;BME280;59071;42.138;24.768;2023-09-18T11:54:48;100034.88;;;29.85;30.32
71151;BME280;59071;42.138;24.768;2023-09-18T11:57:15;100024.56;;;30.37;29.82
71151;BME280;59071;42.138;24.768;2023-09-18T11:59:41;100023.19;;;30.82;29.54
71151;BME280;59071;42.138;24.768;2023-09-18T12:02:08;100015.72;;;31.54;29.37
71151;BME280;59071;42.138;24.768;2023-09-18T12:04:35;100004.25;;;31.86;28.87
71151;BME280;59071;42.138;24.768;2023-09-18T12:07:03;100006.47;;;31.38;29.83
71151;BME280;59071;42.138;24.768;2023-09-18T12:09:35;100011.47;;;31.90;28.23
71151;BME280;59071;42.138;24.768;2023-09-18T12:12:01;100008.84;;;31.82;28.77
71151;BME280;59071;42.138;24.768;2023-09-18T12:14:31;100004.41;;;30.84;28.86
71151;BME280;59071;42.138;24.768;2023-09-18T12:16:59;100007.63;;;30.95;29.66
71151;BME280;59071;42.138;24.768;2023-09-18T12:19:24;100011.03;;;31.13;28.79
71151;BME280;59071;42.138;24.768;2023-09-18T12:21:51;99997.50;;;31.50;29.07
71151;BME280;59071;42.138;24.768;2023-09-18T12:24:25;100008.13;;;31.72;28.25
71151;BME280;59071;42.138;24.768;2023-09-18T12:26:52;100001.31;;;32.03;27.98
71151;BME280;59071;42.138;24.768;2023-09-18T12:29:19;99991.56;;;31.39;28.26
71151;BME280;59071;42.138;24.768;2023-09-18T12:31:44;100006.03;;;30.94;29.20
71151;BME280;59071;42.138;24.768;2023-09-18T12:34:17;99999.03;;;31.17;29.00
71151;BME280;59071;42.138;24.768;2023-09-18T12:36:44;99992.28;;;30.94;29.32
71151;BME280;59071;42.138;24.768;2023-09-18T12:39:09;99987.91;;;30.93;29.71
71151;BME280;59071;42.138;24.768;2023-09-18T12:41:38;99987.50;;;31.03;29.43
71151;BME280;59071;42.138;24.768;2023-09-18T12:44:05;99981.88;;;31.75;28.60
71151;BME280;59071;42.138;24.768;2023-09-18T12:46:31;99978.31;;;32.69;27.35
71151;BME280;59071;42.138;24.768;2023-09-18T12:48:58;99971.50;;;32.54;27.46